createdAt,value
2022-11-05T00:00:33.580Z,0.40
2022-11-05T00:03:19.141Z,1.00
2022-11-05T00:06:06.731Z,0.85
2022-11-05T00:08:52.737Z,0.55
2022-11-05T00:11:39.258Z,2.15
2022-11-05T00:14:24.551Z,1.48
2022-11-05T00:16:51.201Z,1.52
2022-11-05T00:19:17.963Z,0.85
2022-11-05T00:22:03.169Z,1.02
2022-11-05T00:24:48.457Z,0.80
2022-11-05T00:27:15.256Z,0.80
2022-11-05T00:29:42.090Z,0.68
2022-11-05T00:32:08.671Z,0.73
2022-11-05T00:34:35.300Z,1.17
2022-11-05T00:37:01.890Z,0.57
2022-11-05T00:39:28.742Z,0.75
2022-11-05T00:42:13.941Z,2.40
2022-11-05T00:44:59.393Z,0.82
2022-11-05T00:47:44.665Z,1.48
2022-11-05T00:50:11.728Z,2.13
2022-11-05T00:52:56.994Z,0.75
2022-11-05T00:55:38.636Z,0.80
2022-11-05T00:58:10.563Z,0.98
2022-11-05T01:00:41.146Z,6.03
2022-11-05T01:03:10.404Z,0.95
2022-11-05T01:05:45.227Z,1.15
2022-11-05T01:08:13.695Z,2.47
2022-11-05T01:10:41.881Z,0.75
2022-11-05T01:13:12.895Z,1.25
2022-11-05T01:15:40.279Z,1.00
2022-11-05T01:18:07.444Z,1.50
2022-11-05T01:20:34.107Z,2.85
2022-11-05T01:23:01.028Z,0.90
2022-11-05T01:25:28.036Z,4.07
2022-11-05T01:27:54.715Z,1.30
2022-11-05T01:30:21.863Z,1.38
2022-11-05T01:32:48.454Z,3.33
2022-11-05T01:35:17.378Z,1.63
2022-11-05T01:37:44.719Z,1.25
2022-11-05T01:40:19.851Z,1.10
2022-11-05T01:42:46.930Z,0.90
2022-11-05T01:45:27.651Z,0.80
2022-11-05T01:48:05.324Z,2.15
2022-11-05T01:50:41.251Z,1.33
2022-11-05T01:53:34.448Z,1.73
2022-11-05T01:56:12.492Z,1.35
2022-11-05T01:58:51.695Z,0.68
2022-11-05T02:01:19.446Z,2.67
2022-11-05T02:03:49.599Z,1.83
2022-11-05T02:06:17.691Z,1.77
2022-11-05T02:09:06.508Z,1.10
2022-11-05T02:11:33.591Z,0.95
2022-11-05T02:14:00.703Z,1.08
2022-11-05T02:17:08.873Z,1.58
2022-11-05T02:20:12.324Z,2.20
2022-11-05T02:23:07.810Z,1.27
2022-11-05T02:26:17.502Z,0.70
2022-11-05T02:29:54.668Z,1.52
2022-11-05T02:32:55.617Z,1.05
2022-11-05T02:35:40.169Z,0.98
2022-11-05T02:38:10.043Z,1.38
2022-11-05T02:40:50.765Z,1.00
2022-11-05T02:43:37.672Z,0.98
2022-11-05T02:55:49.608Z,1.17
2022-11-05T02:58:17.244Z,1.42
2022-11-05T03:06:51.817Z,1.45
2022-11-05T03:10:11.678Z,1.40
2022-11-05T03:13:15.263Z,1.80
2022-11-05T03:15:58.470Z,0.82
2022-11-05T03:18:46.160Z,0.98
2022-11-05T03:21:21.801Z,1.38
2022-11-05T03:24:10.889Z,1.55
2022-11-05T03:26:57.240Z,0.80
2022-11-05T03:29:33.111Z,1.52
2022-11-05T03:32:03.177Z,0.75
2022-11-05T03:34:38.772Z,3.63
2022-11-05T03:37:08.076Z,1.15
2022-11-05T03:39:43.204Z,0.55
2022-11-05T03:42:13.370Z,0.65
2022-11-05T03:44:46.116Z,1.95
2022-11-05T03:47:17.173Z,0.82
2022-11-05T03:50:17.751Z,0.73
2022-11-05T03:53:00.847Z,1.40
2022-11-05T03:55:33.960Z,1.83
2022-11-05T03:58:04.052Z,9.45
2022-11-05T04:00:30.924Z,0.68
2022-11-05T04:02:57.776Z,1.85
2022-11-05T04:05:24.523Z,0.60
2022-11-05T04:08:14.060Z,1.90
2022-11-05T04:11:07.672Z,1.08
2022-11-05T04:13:34.500Z,0.50
2022-11-05T04:16:19.813Z,2.40
2022-11-05T04:18:47.211Z,0.70
2022-11-05T04:21:32.447Z,0.80
2022-11-05T04:24:08.262Z,1.13
2022-11-05T04:26:43.803Z,3.53
2022-11-05T04:29:29.068Z,0.47
2022-11-05T04:31:55.940Z,0.55
2022-11-05T04:34:23.136Z,0.70
2022-11-05T04:36:50.941Z,1.10
2022-11-05T04:39:18.942Z,1.98
2022-11-05T04:41:48.156Z,1.35
2022-11-05T04:44:15.992Z,1.30
2022-11-05T04:46:42.884Z,0.50
2022-11-05T04:49:09.530Z,2.60
2022-11-05T04:51:36.112Z,1.15
2022-11-05T04:54:02.739Z,0.52
2022-11-05T04:56:29.341Z,0.68
2022-11-05T04:58:55.951Z,0.85
2022-11-05T05:01:25.151Z,0.50
2022-11-05T05:03:53.284Z,0.65
2022-11-05T05:06:20.811Z,0.50
2022-11-05T05:08:48.669Z,0.60
2022-11-05T05:11:20.004Z,1.13
2022-11-05T05:13:47.143Z,0.32
2022-11-05T05:16:22.452Z,0.85
2022-11-05T05:18:50.601Z,1.48
2022-11-05T05:21:37.391Z,0.75
2022-11-05T05:24:06.584Z,1.23
2022-11-05T05:26:33.178Z,1.13
2022-11-05T05:28:59.755Z,1.45
2022-11-05T05:31:26.570Z,0.88
2022-11-05T05:33:54.467Z,2.25
2022-11-05T05:36:22.083Z,0.82
2022-11-05T05:38:49.091Z,1.05
2022-11-05T05:41:16.044Z,0.90
2022-11-05T05:43:42.667Z,0.55
2022-11-05T05:46:12.005Z,0.98
2022-11-05T05:48:38.949Z,3.55
2022-11-05T05:51:08.645Z,1.92
2022-11-05T05:53:36.522Z,2.20
2022-11-05T05:56:04.755Z,0.50
2022-11-05T05:58:35.238Z,0.57
2022-11-05T06:01:15.713Z,0.65
2022-11-05T06:03:45.177Z,0.88
2022-11-05T06:06:13.479Z,2.30
2022-11-05T06:08:40.767Z,2.22
2022-11-05T06:11:08.557Z,1.08
2022-11-05T06:13:36.404Z,1.48
2022-11-05T06:16:08.295Z,7.45
2022-11-05T06:18:35.975Z,2.53
2022-11-05T06:21:08.033Z,2.03
2022-11-05T06:23:38.156Z,3.25
2022-11-05T06:26:07.665Z,1.60
2022-11-05T06:28:34.490Z,1.45
2022-11-05T06:31:01.846Z,1.92
2022-11-05T06:33:28.487Z,2.65
2022-11-05T06:35:58.877Z,2.80
2022-11-05T06:38:25.615Z,1.90
2022-11-05T06:40:52.248Z,2.05
2022-11-05T06:43:19.053Z,1.55
2022-11-05T06:45:45.662Z,2.00
2022-11-05T06:48:12.416Z,3.38
2022-11-05T06:50:39.054Z,2.63
2022-11-05T06:53:06.082Z,2.90
2022-11-05T06:55:32.854Z,3.05
2022-11-05T06:57:59.463Z,3.38
2022-11-05T07:00:26.397Z,5.22
2022-11-05T07:02:52.996Z,2.38
2022-11-05T07:05:19.594Z,2.78
2022-11-05T07:07:46.392Z,2.50
2022-11-05T07:10:18.784Z,3.22
2022-11-05T07:12:45.382Z,2.38
2022-11-05T07:15:12.643Z,1.80
2022-11-05T07:17:40.305Z,3.03
2022-11-05T07:20:08.339Z,1.98
2022-11-05T07:22:35.852Z,1.33
2022-11-05T07:25:02.688Z,1.85
2022-11-05T07:27:29.349Z,1.60
2022-11-05T07:29:55.965Z,2.03
2022-11-05T07:32:22.702Z,1.52
2022-11-05T07:34:49.366Z,1.15
2022-11-05T07:37:16.818Z,2.00
2022-11-05T07:39:43.505Z,1.55
2022-11-05T07:42:16.068Z,1.75
2022-11-05T07:44:46.661Z,1.17
2022-11-05T07:47:13.526Z,3.08
2022-11-05T07:49:45.699Z,2.85
2022-11-05T07:54:39.847Z,1.95
2022-11-05T07:57:06.441Z,2.78
2022-11-05T07:59:33.042Z,1.40
2022-11-05T08:02:00.095Z,1.92
2022-11-05T08:04:26.871Z,18.30
2022-11-05T08:06:53.457Z,4.60
2022-11-05T08:09:20.071Z,4.50
2022-11-05T18:29:47.056Z,11.30
2022-11-05T18:32:34.036Z,9.43
2022-11-05T18:35:21.011Z,10.23
2022-11-05T18:38:07.925Z,9.27
2022-11-05T18:40:55.058Z,15.32
2022-11-05T18:43:42.073Z,17.13
2022-11-05T18:46:56.411Z,8.27
2022-11-05T18:49:37.995Z,13.40
2022-11-05T18:52:26.602Z,16.30
2022-11-05T18:55:13.509Z,8.30
2022-11-05T18:58:00.505Z,7.72
2022-11-05T19:00:47.413Z,8.15
2022-11-05T19:03:34.548Z,7.15
2022-11-05T19:06:21.799Z,9.43
2022-11-05T19:09:11.949Z,8.20
2022-11-05T19:11:58.867Z,7.93
2022-11-05T19:14:46.092Z,10.10
2022-11-05T19:17:33.499Z,5.63
2022-11-05T19:20:20.424Z,8.10
2022-11-05T19:23:07.395Z,5.60
2022-11-05T19:25:54.670Z,6.07
2022-11-05T19:28:42.483Z,9.32
2022-11-05T19:31:32.095Z,5.10
2022-11-05T19:34:19.243Z,6.97
2022-11-05T19:37:08.150Z,5.10
2022-11-05T19:39:55.056Z,4.90
2022-11-05T19:42:42.024Z,3.58
2022-11-05T19:45:45.487Z,4.15
2022-11-05T19:48:32.876Z,6.85
2022-11-05T19:51:23.109Z,6.18
2022-11-05T19:54:10.025Z,3.80
2022-11-05T19:56:57.313Z,5.35
2022-11-05T19:59:44.292Z,3.53
2022-11-05T20:02:31.368Z,5.55
2022-11-05T20:05:18.442Z,5.38
2022-11-05T20:08:05.672Z,5.07
2022-11-05T20:10:56.091Z,6.53
2022-11-05T20:13:43.031Z,3.13
2022-11-05T20:16:38.116Z,6.05
2022-11-05T20:19:25.026Z,7.28
2022-11-05T20:22:12.239Z,4.70
2022-11-05T20:24:59.159Z,6.85
2022-11-05T20:27:46.155Z,7.22
2022-11-05T20:30:33.058Z,6.65
2022-11-05T20:33:20.433Z,3.60
2022-11-05T20:36:10.141Z,5.05
2022-11-05T20:38:58.317Z,5.00
2022-11-05T20:41:45.224Z,5.35
2022-11-05T20:44:32.380Z,7.03
2022-11-05T20:47:19.309Z,3.63
2022-11-05T20:50:07.699Z,8.10
2022-11-05T20:52:54.628Z,9.30
2022-11-05T20:55:46.664Z,3.22
2022-11-05T20:58:33.646Z,7.65
2022-11-05T21:01:20.809Z,5.63
2022-11-05T21:04:07.864Z,4.35
2022-11-05T21:06:54.933Z,8.38
2022-11-05T21:09:41.846Z,8.35
2022-11-05T21:12:28.854Z,5.25
2022-11-05T21:15:24.657Z,4.35
2022-11-05T21:18:12.546Z,4.93
2022-11-05T21:21:02.681Z,6.57
2022-11-05T21:23:51.651Z,3.75
2022-11-05T21:26:38.997Z,5.28
2022-11-05T21:29:26.386Z,4.95
2022-11-05T21:32:13.384Z,7.45
2022-11-05T21:35:00.367Z,4.22
2022-11-05T21:37:47.300Z,3.70
2022-11-05T21:40:34.616Z,5.78
2022-11-05T21:43:21.536Z,4.10
2022-11-05T21:46:10.736Z,2.92
2022-11-05T21:48:57.651Z,4.18
2022-11-05T21:52:03.384Z,4.47
2022-11-05T21:55:09.047Z,4.13
2022-11-05T21:58:14.685Z,6.45
2022-11-05T22:01:02.371Z,9.38
2022-11-05T22:03:49.327Z,9.98
2022-11-05T22:06:36.234Z,8.05
2022-11-05T22:09:23.933Z,11.20
2022-11-05T22:12:10.915Z,5.50
2022-11-05T22:14:57.941Z,11.15
2022-11-05T22:17:47.151Z,9.20
2022-11-05T22:20:38.907Z,7.10
2022-11-05T22:23:25.850Z,5.75
2022-11-05T22:26:12.896Z,14.73
2022-11-05T22:28:59.826Z,10.77
2022-11-05T22:31:46.743Z,6.00
2022-11-05T22:34:34.160Z,8.35
2022-11-05T22:37:21.119Z,9.25
2022-11-05T22:40:08.715Z,5.70
2022-11-05T22:42:55.682Z,4.70
2022-11-05T22:45:43.812Z,11.52
2022-11-05T22:48:30.976Z,5.75
2022-11-05T22:51:21.084Z,7.78
2022-11-05T22:54:08.248Z,3.92
2022-11-05T22:56:55.174Z,4.35
2022-11-05T22:59:42.303Z,4.55
2022-11-05T23:02:29.526Z,4.82
2022-11-05T23:05:16.708Z,10.57
2022-11-05T23:08:22.227Z,4.97
2022-11-05T23:11:35.992Z,5.93
2022-11-05T23:14:23.428Z,6.32
2022-11-05T23:17:29.243Z,6.03
2022-11-05T23:20:41.812Z,6.00
2022-11-05T23:23:47.402Z,3.08
2022-11-05T23:26:51.530Z,4.07
2022-11-05T23:29:38.558Z,6.93
2022-11-05T23:32:25.954Z,4.65
2022-11-05T23:35:13.759Z,5.95
2022-11-05T23:38:19.309Z,4.80
2022-11-05T23:41:24.727Z,7.43
2022-11-05T23:44:30.068Z,7.15
2022-11-05T23:47:35.727Z,6.28
2022-11-05T23:50:23.050Z,4.60
2022-11-05T23:53:10.111Z,5.05
2022-11-05T23:56:12.328Z,5.18
2022-11-05T23:58:59.462Z,7.55
